Time;durP1;ratioP1;P1;durP2;ratioP2;P2;SDS_P1;SDS_P2;PMS_P1;PMS_P2;Temp;Humidity;BMP_temperature;BMP_pressure;BME280_temperature;BME280_humidity;BME280_pressure;Samples;Min_cycle;Max_cycle;Signal;HPM_P1;HPM_P2
2023/04/03 00:01:38;;;;;;;6.25;2.03;;;3.70;1.00;;;;;;5092838;28;20103;-63
2023/04/03 00:04:04;;;;;;;8.75;2.47;;;;;;;;;;5093167;28;20039;-63
2023/04/03 00:06:29;;;;;;;6.65;2.35;;;3.60;99.90;;;;;;5092996;28;20020;-63
2023/04/03 00:08:55;;;;;;;6.88;2.80;;;3.60;94.20;;;;;;5093133;28;20401;-63
2023/04/03 00:11:21;;;;;;;6.80;2.28;;;3.50;99.90;;;;;;5092927;28;20024;-63
2023/04/03 00:13:47;;;;;;;8.18;2.60;;;3.50;99.90;;;;;;5095700;28;20020;-63
2023/04/03 00:16:12;;;;;;;5.05;2.13;;;3.50;99.90;;;;;;5096765;28;20094;-63
2023/04/03 00:18:39;;;;;;;6.55;2.30;;;3.40;99.90;;;;;;5096788;28;20050;-63
2023/04/03 00:21:05;;;;;;;12.15;2.63;;;3.40;99.90;;;;;;5096770;28;20506;-63
2023/04/03 00:23:31;;;;;;;5.43;2.30;;;3.40;99.90;;;;;;5096676;28;20063;-63
2023/04/03 00:25:57;;;;;;;10.70;2.10;;;3.40;99.90;;;;;;5096257;28;20068;-63
2023/04/03 00:28:23;;;;;;;4.95;2.22;;;3.40;99.90;;;;;;5096211;28;20027;-63
2023/04/03 00:30:49;;;;;;;6.70;2.60;;;3.40;99.90;;;;;;5096301;28;20035;-63
2023/04/03 00:33:15;;;;;;;5.97;2.20;;;3.40;99.90;;;;;;5096393;28;20028;-63
2023/04/03 00:35:41;;;;;;;7.55;2.75;;;3.30;99.90;;;;;;5096702;28;20028;-63
2023/04/03 00:38:07;;;;;;;7.35;2.40;;;3.20;99.90;;;;;;5096626;28;20098;-64
2023/04/03 00:40:36;;;;;;;4.45;2.28;;;3.20;99.90;;;;;;5096402;28;20027;-65
2023/04/03 00:43:11;;;;;;;5.50;2.17;;;3.10;99.90;;;;;;5096338;28;20028;-63
2023/04/03 00:45:40;;;;;;;6.45;2.78;;;3.20;99.90;;;;;;5096218;28;20028;-63
2023/04/03 00:48:09;;;;;;;5.22;2.08;;;3.10;99.90;;;;;;5095925;28;20055;-63
2023/04/03 00:50:39;;;;;;;6.47;2.30;;;3.00;99.90;;;;;;5096242;28;20035;-63
2023/04/03 00:53:06;;;;;;;8.30;2.50;;;3.00;99.90;;;;;;5096200;28;20020;-63
2023/04/03 00:55:32;;;;;;;4.30;2.22;;;;;;;;;;5096203;28;20049;-63
2023/04/03 00:58:00;;;;;;;9.70;2.40;;;2.60;1.00;;;;;;5095816;28;20156;-63
2023/04/03 01:00:26;;;;;;;6.15;2.55;;;2.70;1.00;;;;;;5096061;28;20486;-63
2023/04/03 01:02:52;;;;;;;7.50;2.22;;;2.80;99.90;;;;;;5095957;28;20020;-63
2023/04/03 01:05:20;;;;;;;8.27;2.05;;;2.80;99.90;;;;;;5095867;28;20400;-63
2023/04/03 01:07:46;;;;;;;8.45;2.30;;;2.80;99.90;;;;;;5095662;28;20031;-63
2023/04/03 01:10:15;;;;;;;7.00;2.00;;;2.80;99.90;;;;;;5096018;28;20028;-63
2023/04/03 01:12:44;;;;;;;9.20;3.25;;;2.70;99.90;;;;;;5095846;28;20024;-63
2023/04/03 01:15:14;;;;;;;7.55;2.50;;;2.60;1.00;;;;;;5095807;28;20085;-64
2023/04/03 01:17:44;;;;;;;5.18;2.40;;;2.70;99.90;;;;;;5095898;28;20153;-63
2023/04/03 01:25:49;;;;;;;4.15;2.20;;;2.60;1.00;;;;;;5070625;28;20383;-63
2023/04/03 01:28:19;;;;;;;5.03;2.60;;;2.50;1.00;;;;;;5070766;28;20024;-64
2023/04/03 01:31:00;;;;;;;5.75;2.45;;;2.50;1.00;;;;;;5070777;28;20047;-63
2023/04/03 01:33:26;;;;;;;4.65;2.13;;;2.50;1.00;;;;;;5070746;28;20098;-63
2023/04/03 01:35:51;;;;;;;8.25;2.13;;;2.40;1.00;;;;;;5070597;28;20479;-63
2023/04/03 01:38:17;;;;;;;6.13;2.10;;;2.40;1.00;;;;;;5070422;28;20025;-63
2023/04/03 01:40:42;;;;;;;10.15;2.60;;;2.40;1.00;;;;;;5070593;28;20035;-64
2023/04/03 01:43:09;;;;;;;8.45;3.05;;;2.30;1.00;;;;;;5070431;28;20033;-63
2023/04/03 01:45:34;;;;;;;9.40;2.33;;;2.20;1.00;;;;;;5070057;28;20116;-63
2023/04/03 01:48:00;;;;;;;5.47;2.13;;;2.20;1.00;;;;;;5070150;28;20522;-63
2023/04/03 01:50:26;;;;;;;6.45;1.92;;;2.30;1.00;;;;;;5070371;28;20055;-63
2023/04/03 01:52:51;;;;;;;4.05;1.90;;;2.30;1.00;;;;;;5070067;28;20029;-63
2023/04/03 01:55:17;;;;;;;6.00;2.40;;;2.30;1.00;;;;;;5070140;28;20029;-63
2023/04/03 01:57:42;;;;;;;6.93;2.08;;;2.20;1.00;;;;;;5070346;28;20137;-63
2023/04/03 02:00:09;;;;;;;5.80;1.83;;;2.20;1.00;;;;;;5070107;28;20069;-63
2023/04/03 02:02:34;;;;;;;4.55;2.60;;;2.20;1.00;;;;;;5069991;28;20031;-64
2023/04/03 02:05:00;;;;;;;9.43;2.75;;;2.20;1.00;;;;;;5069747;28;20112;-63
2023/04/03 02:07:25;;;;;;;4.55;1.90;;;2.10;1.00;;;;;;5069971;28;20024;-63
2023/04/03 02:09:51;;;;;;;5.25;2.08;;;2.10;1.00;;;;;;5069862;28;20056;-63
2023/04/03 02:12:17;;;;;;;6.32;2.42;;;2.10;1.00;;;;;;5069653;28;20025;-64
2023/04/03 02:14:42;;;;;;;9.80;2.58;;;2.00;1.00;;;;;;5069850;28;20107;-63
2023/04/03 02:17:08;;;;;;;6.32;2.35;;;2.00;1.00;;;;;;5069650;28;20044;-63
2023/04/03 02:19:35;;;;;;;10.63;2.78;;;2.00;1.00;;;;;;5069474;28;20506;-63
2023/04/03 02:22:01;;;;;;;6.40;2.33;;;1.90;1.00;;;;;;5069532;28;20033;-63
2023/04/03 02:24:27;;;;;;;7.10;2.25;;;2.00;1.00;;;;;;5069287;28;20045;-63
2023/04/03 02:26:53;;;;;;;10.65;2.88;;;2.00;1.00;;;;;;5069570;28;20086;-64
2023/04/03 02:29:19;;;;;;;12.30;3.65;;;1.90;1.00;;;;;;5069120;28;20029;-63
2023/04/03 02:31:44;;;;;;;6.72;2.30;;;1.80;1.00;;;;;;5069414;28;20110;-63
2023/04/03 02:34:10;;;;;;;9.95;2.78;;;1.80;1.00;;;;;;5069630;28;20021;-63
2023/04/03 02:36:36;;;;;;;5.88;2.55;;;1.80;1.00;;;;;;5059001;28;20394;-63
2023/04/03 02:39:02;;;;;;;6.60;3.00;;;1.70;1.00;;;;;;5056158;28;20029;-63
2023/04/03 02:41:33;;;;;;;11.30;2.47;;;1.70;1.00;;;;;;5055859;28;20067;-63
2023/04/03 02:43:59;;;;;;;8.80;3.40;;;1.70;1.00;;;;;;5055981;28;20084;-63
2023/04/03 02:46:24;;;;;;;7.65;2.60;;;1.60;1.00;;;;;;5055991;28;20111;-63
2023/04/03 02:48:50;;;;;;;9.20;2.40;;;1.60;1.00;;;;;;5055950;28;20037;-63
2023/04/03 02:51:16;;;;;;;8.18;3.05;;;1.50;1.00;;;;;;5055961;28;20017;-64
2023/04/03 02:53:41;;;;;;;7.00;2.70;;;1.60;1.00;;;;;;5055734;28;20040;-63
2023/04/03 02:56:07;;;;;;;11.02;2.88;;;1.50;1.00;;;;;;5055480;28;20467;-63
2023/04/03 02:58:32;;;;;;;4.20;2.28;;;1.50;1.00;;;;;;5055686;28;20369;-63
2023/04/03 03:00:58;;;;;;;10.25;2.80;;;1.40;1.00;;;;;;5055636;28;20036;-63
2023/04/03 03:03:23;;;;;;;8.02;2.67;;;1.30;1.00;;;;;;5055614;28;20035;-63
2023/04/03 03:05:49;;;;;;;11.77;2.90;;;1.30;1.00;;;;;;5055369;28;20033;-64
2023/04/03 03:08:14;;;;;;;6.07;2.00;;;1.30;1.00;;;;;;5055341;28;20055;-64
2023/04/03 03:10:40;;;;;;;6.25;2.20;;;1.40;1.00;;;;;;5055640;28;20021;-63
2023/04/03 03:13:05;;;;;;;9.98;3.08;;;1.30;1.00;;;;;;5055476;28;20386;-64
2023/04/03 03:15:31;;;;;;;10.27;2.70;;;1.30;1.00;;;;;;5055013;28;20029;-63
2023/04/03 03:17:57;;;;;;;7.35;2.35;;;1.30;1.00;;;;;;5054942;28;20021;-63
2023/04/03 03:20:22;;;;;;;10.15;2.67;;;1.30;1.00;;;;;;5055298;28;20387;-63
2023/04/03 03:22:48;;;;;;;6.85;2.33;;;1.30;1.00;;;;;;5055459;28;20112;-63
2023/04/03 03:25:13;;;;;;;10.15;3.25;;;1.30;1.00;;;;;;5054874;28;20048;-63
2023/04/03 03:27:39;;;;;;;10.48;3.28;;;1.20;1.00;;;;;;5055011;28;20074;-63
2023/04/03 03:30:05;;;;;;;10.85;3.35;;;1.20;1.00;;;;;;5055178;28;20039;-63
2023/04/03 03:32:31;;;;;;;13.85;3.20;;;1.10;1.00;;;;;;5055118;28;20025;-63
2023/04/03 03:34:56;;;;;;;8.38;3.42;;;1.10;1.00;;;;;;5054702;28;20021;-63
2023/04/03 03:37:22;;;;;;;9.32;3.20;;;1.10;1.00;;;;;;5054839;28;20028;-64
2023/04/03 03:39:47;;;;;;;11.48;3.95;;;1.00;3.20;;;;;;5055027;28;20068;-63
2023/04/03 03:42:13;;;;;;;11.77;3.80;;;0.90;4.60;;;;;;5054884;28;20040;-63
2023/04/03 03:44:39;;;;;;;11.93;3.60;;;0.90;6.90;;;;;;5054548;28;20476;-63
2023/04/03 03:47:05;;;;;;;11.50;3.88;;;0.90;9.20;;;;;;5053987;28;20052;-63
2023/04/03 03:49:31;;;;;;;17.02;3.58;;;0.90;8.10;;;;;;5054470;28;20387;-63
2023/04/03 03:51:56;;;;;;;7.38;2.28;;;0.80;10.10;;;;;;5054583;28;20028;-63
2023/04/03 03:54:22;;;;;;;8.95;2.50;;;0.80;13.50;;;;;;5054775;28;20075;-63
2023/04/03 03:56:48;;;;;;;7.80;2.90;;;0.80;12.90;;;;;;5054738;28;20094;-63
2023/04/03 03:59:13;;;;;;;6.53;2.80;;;0.70;16.80;;;;;;5054488;28;20057;-63
2023/04/03 04:01:39;;;;;;;10.27;2.63;;;0.70;25.60;;;;;;5054510;28;20028;-63
2023/04/03 04:04:05;;;;;;;11.38;2.97;;;0.70;27.10;;;;;;5054147;28;20082;-63
2023/04/03 04:06:30;;;;;;;8.85;2.97;;;0.70;22.80;;;;;;5054425;28;20063;-64
2023/04/03 04:08:56;;;;;;;10.10;2.63;;;0.70;18.40;;;;;;5054454;28;20386;-63
2023/04/03 04:11:22;;;;;;;8.77;3.25;;;0.60;17.70;;;;;;5054349;28;20037;-63
2023/04/03 04:13:47;;;;;;;10.43;2.90;;;0.60;26.20;;;;;;5054060;28;20037;-63
2023/04/03 04:16:13;;;;;;;7.97;2.92;;;0.60;29.90;;;;;;5054446;28;20071;-63
2023/04/03 04:18:38;;;;;;;14.20;3.60;;;0.60;27.90;;;;;;5054309;28;20117;-63
2023/04/03 04:21:04;;;;;;;8.73;3.60;;;0.60;32.20;;;;;;5053992;28;20025;-63
2023/04/03 04:23:29;;;;;;;9.32;3.17;;;0.60;25.70;;;;;;5053497;28;20036;-65
2023/04/03 04:25:55;;;;;;;10.35;3.60;;;0.60;27.00;;;;;;5053632;28;20132;-63
2023/04/03 04:28:20;;;;;;;9.40;3.95;;;0.60;25.00;;;;;;5054235;28;20394;-63
2023/04/03 04:30:46;;;;;;;12.07;3.75;;;0.60;24.70;;;;;;5053985;28;20064;-65
2023/04/03 04:33:13;;;;;;;12.82;4.25;;;0.50;24.30;;;;;;5053948;28;20020;-63
2023/04/03 04:35:39;;;;;;;11.48;4.00;;;0.40;24.40;;;;;;5053941;28;20036;-63
2023/04/03 04:38:05;;;;;;;9.68;3.55;;;0.40;32.40;;;;;;5053650;28;20163;-63
2023/04/03 04:40:30;;;;;;;12.55;4.30;;;0.30;34.60;;;;;;5053826;28;20029;-63
2023/04/03 04:42:56;;;;;;;8.32;3.55;;;0.40;40.50;;;;;;5053635;28;20479;-63
2023/04/03 04:45:21;;;;;;;7.85;3.58;;;0.40;34.00;;;;;;5053489;28;20040;-64
2023/04/03 04:47:47;;;;;;;10.73;3.70;;;0.30;31.50;;;;;;5053738;28;20036;-64
2023/04/03 04:50:13;;;;;;;11.70;3.80;;;0.40;30.00;;;;;;5053847;28;20523;-63
2023/04/03 04:52:39;;;;;;;12.25;4.50;;;0.30;32.70;;;;;;5053696;28;20040;-63
2023/04/03 04:55:05;;;;;;;11.15;4.28;;;0.30;28.80;;;;;;5053447;28;20029;-64
2023/04/03 04:57:30;;;;;;;11.10;4.03;;;0.30;29.50;;;;;;5053651;28;20098;-63
2023/04/03 04:59:56;;;;;;;12.45;4.15;;;0.40;27.60;;;;;;5053073;28;20033;-63
2023/04/03 05:02:21;;;;;;;10.43;3.67;;;0.40;21.20;;;;;;5053562;28;20111;-63
2023/04/03 05:04:47;;;;;;;10.38;3.67;;;0.40;16.80;;;;;;5053438;28;20028;-64
2023/04/03 05:07:12;;;;;;;10.13;3.40;;;0.40;14.50;;;;;;5053503;28;20021;-63
2023/04/03 05:09:38;;;;;;;15.13;3.28;;;0.30;21.40;;;;;;5053395;28;20033;-65
2023/04/03 05:12:04;;;;;;;10.93;3.40;;;0.20;18.80;;;;;;5053420;28;20029;-63
2023/04/03 05:14:30;;;;;;;9.98;3.05;;;0.20;25.10;;;;;;5053385;28;20029;-63
2023/04/03 05:16:55;;;;;;;9.73;3.75;;;0.20;24.60;;;;;;5053445;28;20029;-63
2023/04/03 05:19:21;;;;;;;9.50;2.95;;;0.20;25.40;;;;;;5053197;28;20025;-64
2023/04/03 05:21:47;;;;;;;7.38;3.17;;;0.40;23.60;;;;;;5052916;28;20047;-63
2023/04/03 05:24:14;;;;;;;9.30;3.92;;;0.50;12.30;;;;;;5052904;28;20128;-63
2023/04/03 05:26:40;;;;;;;8.43;3.30;;;0.70;1.00;;;;;;5052914;28;20017;-63
2023/04/03 05:29:06;;;;;;;7.90;3.15;;;0.80;1.00;;;;;;5053106;28;20059;-63
2023/04/03 05:31:31;;;;;;;11.02;3.30;;;0.80;1.00;;;;;;5053093;28;20475;-63
2023/04/03 05:33:57;;;;;;;10.38;3.15;;;0.80;1.00;;;;;;5053155;28;20082;-64
2023/04/03 05:36:23;;;;;;;11.27;3.63;;;0.80;1.00;;;;;;5052831;28;20021;-63
2023/04/03 05:38:49;;;;;;;8.15;3.03;;;0.90;1.00;;;;;;5053002;28;20453;-64
2023/04/03 05:41:15;;;;;;;14.45;2.70;;;1.10;1.00;;;;;;5040397;28;20030;-63
2023/04/03 05:43:41;;;;;;;10.73;3.10;;;1.20;1.00;;;;;;5033108;28;20107;-63
2023/04/03 05:46:10;;;;;;;11.90;3.92;;;1.40;1.00;;;;;;5036859;28;20025;-64
2023/04/03 05:48:36;;;;;;;6.60;2.90;;;1.80;1.00;;;;;;5037687;28;20528;-63
2023/04/03 05:51:02;;;;;;;7.20;2.78;;;2.40;99.90;;;;;;5035845;28;20060;-64
2023/04/03 05:53:31;;;;;;;8.95;3.17;;;3.50;1.00;;;;;;5034444;28;20069;-63
2023/04/03 05:55:56;;;;;;;9.32;3.20;;;3.70;99.90;;;;;;5033146;28;20033;-63
2023/04/03 05:58:22;;;;;;;7.38;2.60;;;4.90;99.90;;;;;;5032406;28;20108;-66
2023/04/03 06:00:48;;;;;;;6.03;2.60;;;4.30;99.90;;;;;;5039419;28;20156;-64
2023/04/03 06:03:13;;;;;;;8.23;2.72;;;5.30;1.00;;;;;;5044419;28;20029;-63
2023/04/03 06:05:39;;;;;;;8.40;3.17;;;5.50;99.90;;;;;;5052320;28;20032;-63
2023/04/03 06:08:05;;;;;;;9.90;2.90;;;5.90;99.90;;;;;;5051040;28;20029;-63
2023/04/03 06:10:31;;;;;;;6.40;3.20;;;5.40;99.90;;;;;;5046775;28;20036;-63
2023/04/03 06:12:56;;;;;;;5.45;2.70;;;6.40;99.90;;;;;;5055654;28;20025;-63
2023/04/03 06:15:22;;;;;;;7.70;2.60;;;6.30;99.90;;;;;;5056471;28;20033;-63
2023/04/03 06:17:48;;;;;;;7.65;3.15;;;5.80;99.90;;;;;;5054801;28;20029;-64
2023/04/03 06:20:13;;;;;;;8.27;2.55;;;5.50;99.90;;;;;;5053269;28;20570;-63
2023/04/03 06:22:40;;;;;;;7.85;2.47;;;5.50;99.90;;;;;;5050150;28;20036;-65
2023/04/03 06:25:06;;;;;;;7.80;3.03;;;5.20;99.90;;;;;;5053219;28;20041;-63
2023/04/03 06:27:31;;;;;;;10.48;3.35;;;5.60;99.90;;;;;;5054957;28;20493;-63
2023/04/03 06:29:57;;;;;;;8.48;2.80;;;7.20;1.00;;;;;;5054356;28;20108;-67
2023/04/03 06:32:23;;;;;;;5.95;2.63;;;7.30;99.90;;;;;;5048482;28;20029;-64
2023/04/03 06:34:48;;;;;;;7.20;3.08;;;7.60;1.00;;;;;;5049592;28;20048;-64
2023/04/03 06:37:22;;;;;;;8.75;3.00;;;7.70;99.90;;;;;;5040879;28;20060;-65
2023/04/03 06:39:47;;;;;;;8.32;3.17;;;8.60;18.40;;;;;;5051832;28;20069;-65
2023/04/03 06:42:13;;;;;;;9.63;3.53;;;8.00;99.90;;;;;;5054452;28;20032;-64
2023/04/03 06:44:39;;;;;;;9.00;3.35;;;8.50;99.90;;;;;;5049647;28;20163;-63
2023/04/03 06:47:05;;;;;;;8.85;3.10;;;7.50;99.90;;;;;;5052852;28;20029;-63
2023/04/03 06:49:31;;;;;;;9.40;3.83;;;8.60;1.00;;;;;;5043178;28;20028;-67
2023/04/03 06:51:57;;;;;;;11.30;3.55;;;9.00;1.00;;;;;;5043301;28;20033;-63
2023/04/03 06:54:22;;;;;;;8.13;3.40;;;8.70;99.90;;;;;;5054982;28;20155;-64
2023/04/03 06:56:48;;;;;;;6.18;3.17;;;8.50;1.00;;;;;;5051766;28;20032;-62
2023/04/03 06:59:15;;;;;;;8.68;3.47;;;8.10;99.90;;;;;;5053684;28;20033;-64
2023/04/03 07:01:42;;;;;;;6.47;3.05;;;8.00;99.90;;;;;;5046982;28;20037;-64
2023/04/03 07:04:08;;;;;;;8.73;3.40;;;9.10;10.20;;;;;;5047159;28;20043;-65
2023/04/03 07:06:34;;;;;;;9.23;2.92;;;9.80;1.00;;;;;;5046672;28;20025;-65
2023/04/03 07:09:00;;;;;;;7.13;2.83;;;9.00;99.90;;;;;;5048261;28;20395;-66
2023/04/03 07:11:26;;;;;;;8.23;2.80;;;7.80;1.00;;;;;;5050195;28;20043;-64
2023/04/03 07:13:52;;;;;;;7.47;3.05;;;8.80;1.00;;;;;;5053972;28;20068;-64
2023/04/03 07:16:18;;;;;;;8.88;2.50;;;9.60;99.90;;;;;;5049219;28;20146;-65
2023/04/03 07:18:44;;;;;;;5.97;2.22;;;9.00;99.90;;;;;;5048852;28;20115;-63
2023/04/03 07:21:10;;;;;;;7.45;2.40;;;9.40;99.90;;;;;;5041697;28;20355;-64
2023/04/03 07:23:36;;;;;;;5.60;2.78;;;9.40;99.90;;;;;;5046698;28;20112;-64
2023/04/03 07:26:01;;;;;;;6.82;2.40;;;9.60;56.60;;;;;;5044951;28;20032;-66
2023/04/03 07:28:27;;;;;;;8.35;2.70;;;9.20;99.90;;;;;;5046692;28;20029;-65
2023/04/03 07:31:03;;;;;;;4.95;2.53;;;10.30;40.20;;;;;;5056174;28;20071;-67
2023/04/03 07:33:30;;;;;;;5.95;2.20;;;10.90;1.00;;;;;;5049507;28;20109;-66
2023/04/03 07:35:56;;;;;;;8.45;2.28;;;10.60;1.00;;;;;;5051118;28;20120;-66
2023/04/03 07:38:22;;;;;;;6.03;2.00;;;9.10;1.00;;;;;;5041976;28;20092;-66
2023/04/03 07:40:50;;;;;;;4.25;1.90;;;9.20;1.00;;;;;;5053082;28;20017;-67
2023/04/03 07:43:17;;;;;;;6.85;2.60;;;9.80;1.00;;;;;;5049381;28;20098;-66
2023/04/03 07:45:43;;;;;;;4.03;1.90;;;9.40;1.00;;;;;;5049381;28;20063;-66
2023/04/03 07:48:10;;;;;;;5.72;2.00;;;9.60;1.00;;;;;;5046741;28;20056;-66
2023/04/03 07:50:36;;;;;;;6.63;2.50;;;10.30;1.00;;;;;;5050399;28;20032;-67
2023/04/03 07:53:02;;;;;;;8.25;2.42;;;9.60;1.00;;;;;;5050767;28;20383;-67
2023/04/03 07:55:28;;;;;;;6.00;2.00;;;10.80;1.00;;;;;;5049725;28;20039;-67
2023/04/03 07:57:54;;;;;;;5.38;1.98;;;11.60;99.90;;;;;;5055986;28;20036;-67
2023/04/03 08:00:19;;;;;;;4.72;1.92;;;11.40;99.90;;;;;;5051742;28;20100;-68
2023/04/03 08:02:50;;;;;;;4.72;1.92;;;11.50;99.90;;;;;;5051857;28;20029;-65
2023/04/03 08:05:17;;;;;;;6.13;2.42;;;10.60;99.90;;;;;;5045390;28;20057;-66
2023/04/03 08:07:42;;;;;;;6.45;2.30;;;9.70;99.90;;;;;;5050673;28;20444;-66
2023/04/03 08:10:08;;;;;;;4.50;2.15;;;9.70;1.00;;;;;;5043034;28;20052;-65
2023/04/03 08:12:34;;;;;;;7.13;2.25;;;10.70;99.90;;;;;;5045288;28;20086;-66
2023/04/03 08:15:01;;;;;;;6.47;2.33;;;10.20;99.90;;;;;;5050858;28;20429;-66
2023/04/03 08:17:26;;;;;;;6.75;2.45;;;10.50;99.90;;;;;;5045219;28;20085;-67
2023/04/03 08:19:52;;;;;;;4.13;1.90;;;10.60;99.90;;;;;;5048891;28;20067;-67
2023/04/03 08:22:17;;;;;;;5.80;2.55;;;10.30;99.90;;;;;;5048988;28;20060;-67
2023/04/03 08:24:43;;;;;;;4.80;2.50;;;10.30;99.90;;;;;;5063300;28;20513;-67
2023/04/03 08:27:09;;;;;;;3.70;2.00;;;11.50;99.90;;;;;;5049175;28;20100;-68
2023/04/03 08:29:34;;;;;;;4.20;2.00;;;11.80;99.90;;;;;;5047245;28;22085;-68
2023/04/03 08:32:00;;;;;;;6.15;2.10;;;10.60;99.90;;;;;;5055642;28;20063;-68
2023/04/03 08:34:26;;;;;;;5.88;2.35;;;10.70;99.90;;;;;;5050396;28;20527;-67
2023/04/03 08:36:51;;;;;;;3.35;1.85;;;10.10;99.90;;;;;;5053626;28;20025;-68
2023/04/03 08:39:17;;;;;;;5.63;2.33;;;9.50;99.90;;;;;;5043343;28;20026;-69
2023/04/03 08:41:46;;;;;;;4.55;2.15;;;9.80;99.90;;;;;;5057370;28;20025;-69
2023/04/03 08:44:25;;;;;;;8.85;2.35;;;9.50;99.90;;;;;;5047598;28;20043;-67
2023/04/03 08:47:17;;;;;;;4.07;1.90;;;11.00;99.90;;;;;;5035355;28;20068;-69
2023/04/03 08:50:07;;;;;;;9.93;2.40;;;10.70;1.00;;;;;;5047640;28;20025;-65
2023/04/03 08:52:45;;;;;;;3.95;1.75;;;11.00;1.00;;;;;;5053880;28;20021;-67
2023/04/03 08:55:31;;;;;;;5.25;2.20;;;10.70;1.00;;;;;;5045139;28;20033;-67
2023/04/03 08:58:02;;;;;;;5.95;1.90;;;9.80;1.00;;;;;;5064729;28;20056;-66
2023/04/03 09:00:34;;;;;;;4.10;1.90;;;9.60;99.90;;;;;;5049713;28;20394;-67
2023/04/03 09:03:00;;;;;;;5.20;2.30;;;10.20;99.90;;;;;;5053141;28;20120;-66
2023/04/03 09:05:43;;;;;;;4.80;1.90;;;10.90;99.90;;;;;;5041130;28;20108;-66
2023/04/03 09:08:31;;;;;;;5.68;2.20;;;10.60;99.90;;;;;;5032000;28;20391;-65
2023/04/03 09:11:21;;;;;;;5.13;1.70;;;10.30;99.90;;;;;;5052555;28;20033;-66
2023/04/03 09:14:07;;;;;;;3.60;1.70;;;10.10;99.90;;;;;;5045073;28;20044;-66
2023/04/03 09:16:47;;;;;;;4.03;1.52;;;9.30;99.90;;;;;;5046568;28;20028;-70
2023/04/03 09:19:41;;;;;;;2.95;1.38;;;9.90;1.00;;;;;;5039582;28;20476;-68
2023/04/03 09:22:28;;;;;;;4.05;1.38;;;10.90;27.90;;;;;;5047473;28;20036;-66
2023/04/03 09:25:10;;;;;;;6.50;1.65;;;10.40;99.90;;;;;;5050259;28;20049;-67
2023/04/03 09:27:35;;;;;;;4.18;1.50;;;10.30;99.90;;;;;;5050153;28;20120;-67
2023/04/03 09:30:01;;;;;;;4.25;1.67;;;10.10;1.00;;;;;;5038600;28;20546;-67
2023/04/03 09:32:30;;;;;;;5.38;1.40;;;9.60;1.00;;;;;;5032434;28;20530;-67
2023/04/03 09:35:01;;;;;;;2.78;1.20;;;9.80;1.00;;;;;;5030060;28;20029;-66
2023/04/03 09:37:38;;;;;;;2.45;1.40;;;9.90;1.00;;;;;;5034831;28;20029;-65
2023/04/03 09:40:04;;;;;;;4.95;1.63;;;10.00;1.00;;;;;;5046756;28;20043;-66
2023/04/03 09:42:31;;;;;;;3.13;1.45;;;9.60;1.00;;;;;;5049844;28;20032;-67
2023/04/03 09:45:01;;;;;;;3.83;1.50;;;9.90;1.00;;;;;;5056050;28;20060;-67
2023/04/03 09:47:33;;;;;;;3.40;1.52;;;9.90;1.00;;;;;;5052751;28;20026;-67
2023/04/03 09:50:20;;;;;;;3.38;1.38;;;10.30;1.00;;;;;;5051733;28;20055;-66
2023/04/03 09:52:51;;;;;;;5.07;1.27;;;11.00;1.00;;;;;;5056887;28;20565;-65
2023/04/03 09:55:26;;;;;;;3.28;1.40;;;10.90;1.00;;;;;;5052775;28;20025;-66
2023/04/03 09:57:53;;;;;;;2.50;1.42;;;10.60;1.00;;;;;;5051810;28;20037;-66
2023/04/03 10:00:23;;;;;;;4.55;1.38;;;9.90;28.00;;;;;;5051560;28;20486;-68
2023/04/03 10:02:53;;;;;;;2.55;1.10;;;10.50;4.60;;;;;;5048431;28;20038;-69
2023/04/03 10:08:23;;;;;;;3.60;1.55;;;10.70;5.50;;;;;;5084582;27;20814;-66
2023/04/03 10:11:09;;;;;;;4.63;1.40;;;9.90;64.50;;;;;;5088414;28;20020;-64
2023/04/03 10:13:35;;;;;;;4.68;1.50;;;9.90;68.90;;;;;;5086999;28;20038;-63
2023/04/03 10:16:12;;;;;;;2.97;1.20;;;9.70;69.90;;;;;;5087935;28;20401;-65
2023/04/03 10:18:44;;;;;;;4.60;1.55;;;10.40;68.70;;;;;;5087104;28;20394;-65
2023/04/03 10:21:24;;;;;;;4.55;1.55;;;10.20;67.90;;;;;;5085677;28;20024;-64
2023/04/03 10:23:57;;;;;;;7.05;1.55;;;9.60;68.90;;;;;;5087502;28;20028;-65
2023/04/03 10:26:52;;;;;;;5.45;1.60;;;10.60;75.30;;;;;;5088249;28;20032;-66
2023/04/03 10:29:46;;;;;;;2.30;1.10;;;10.90;68.50;;;;;;5086000;28;20025;-67
2023/04/03 10:32:45;;;;;;;4.47;1.23;;;10.40;68.90;;;;;;5088492;28;20489;-65
2023/04/03 10:35:37;;;;;;;4.30;1.67;;;9.90;69.20;;;;;;5086213;28;20610;-65
2023/04/03 10:38:32;;;;;;;2.22;1.08;;;9.90;68.00;;;;;;5089097;28;20029;-65
2023/04/03 10:41:22;;;;;;;3.63;1.40;;;10.10;67.50;;;;;;5074698;28;20488;-65
2023/04/03 10:46:40;;;;;;;4.93;1.58;;;10.20;72.40;;;;;;5101095;27;20328;-64
2023/04/03 10:49:27;;;;;;;3.67;1.38;;;10.20;66.20;;;;;;5104330;28;20030;-64
2023/04/03 10:52:05;;;;;;;3.15;1.20;;;9.40;69.50;;;;;;5110018;28;20073;-64
2023/04/03 10:54:56;;;;;;;2.20;1.17;;;9.80;75.10;;;;;;5104044;28;20077;-66
2023/04/03 10:57:24;;;;;;;3.63;1.45;;;10.20;71.50;;;;;;5098449;28;20099;-64
2023/04/03 10:59:54;;;;;;;3.08;1.48;;;10.50;71.50;;;;;;5106069;28;20103;-67
2023/04/03 11:02:28;;;;;;;3.67;1.33;;;10.70;72.50;;;;;;5102003;28;20058;-66
2023/04/03 11:05:00;;;;;;;7.88;1.30;;;10.50;71.70;;;;;;5092547;28;20080;-66
2023/04/03 11:07:32;;;;;;;4.72;1.40;;;10.40;75.70;;;;;;5106971;28;20125;-67
2023/04/03 11:10:05;;;;;;;5.30;1.40;;;10.50;73.30;;;;;;5099063;28;20032;-65
2023/04/03 11:12:54;;;;;;;4.45;1.42;;;10.20;73.90;;;;;;5095323;28;20032;-64
2023/04/03 11:15:32;;;;;;;5.32;1.42;;;9.40;70.40;;;;;;5096034;28;20567;-66
2023/04/03 11:18:03;;;;;;;4.20;1.55;;;8.80;74.80;;;;;;5107830;28;20035;-64
2023/04/03 11:20:33;;;;;;;5.32;1.30;;;8.80;75.80;;;;;;5103819;28;20043;-64
2023/04/03 11:25:53;;;;;;;5.30;1.50;;;9.20;79.70;;;;;;5104609;27;20530;-66
2023/04/03 11:28:19;;;;;;;4.72;1.40;;;8.80;73.10;;;;;;5084117;28;20028;-66
2023/04/03 11:31:10;;;;;;;2.70;1.30;;;9.20;74.20;;;;;;5080418;28;20028;-65
2023/04/03 11:34:15;;;;;;;3.97;1.30;;;9.10;73.90;;;;;;5074342;28;20035;-66
2023/04/03 11:36:53;;;;;;;4.40;1.30;;;8.80;75.30;;;;;;5078842;28;20028;-67
2023/04/03 11:39:33;;;;;;;3.47;1.17;;;8.70;76.80;;;;;;5104452;28;20032;-68
2023/04/03 11:42:39;;;;;;;3.65;1.50;;;9.10;76.70;;;;;;5076557;28;20036;-67
2023/04/03 11:50:57;;;;;;;3.20;1.10;;;8.70;76.20;;;;;;5081691;27;20417;-65
2023/04/03 11:56:30;;;;;;;2.92;1.30;;;8.40;75.90;;;;;;5084196;27;20914;-66
2023/04/03 11:59:15;;;;;;;2.28;1.08;;;8.30;75.10;;;;;;5075030;28;20122;-67
2023/04/03 12:01:56;;;;;;;3.45;1.08;;;8.40;74.90;;;;;;5080516;28;20509;-68
2023/04/03 12:04:24;;;;;;;2.92;1.08;;;8.50;75.20;;;;;;5080242;28;20062;-68
2023/04/03 12:07:16;;;;;;;1.75;1.13;;;8.50;78.00;;;;;;5082029;28;20036;-68
2023/04/03 12:12:30;;;;;;;4.72;1.23;;;8.90;73.70;;;;;;5051590;28;20386;-68
2023/04/03 12:15:31;;;;;;;3.05;1.35;;;9.20;79.50;;;;;;5028866;28;20044;-69
2023/04/03 12:17:57;;;;;;;2.92;1.30;;;8.70;76.90;;;;;;5026022;28;20036;-66
2023/04/03 12:20:58;;;;;;;4.28;1.40;;;9.20;81.30;;;;;;5032894;28;20033;-66
2023/04/03 12:23:29;;;;;;;5.65;1.25;;;9.00;78.80;;;;;;5040580;28;20039;-67
2023/04/03 12:26:21;;;;;;;6.80;1.45;;;8.00;76.40;;;;;;5032404;28;20030;-65
2023/04/03 12:28:48;;;;;;;5.82;1.30;;;7.90;79.40;;;;;;5028649;28;20041;-67
2023/04/03 12:31:14;;;;;;;4.40;1.45;;;7.90;83.50;;;;;;5035453;28;20499;-66
2023/04/03 12:34:09;;;;;;;4.75;1.40;;;8.10;73.30;;;;;;5042834;28;20464;-66
2023/04/03 12:39:55;;;;;;;3.33;1.40;;;8.30;75.50;;;;;;5093627;27;20388;-66
2023/04/03 12:42:50;;;;;;;4.97;1.60;;;8.50;71.20;;;;;;5117044;28;20405;-67
2023/04/03 12:45:21;;;;;;;5.45;1.50;;;8.50;69.70;;;;;;5095793;28;20028;-67
2023/04/03 12:47:50;;;;;;;5.30;1.52;;;8.60;70.30;;;;;;5104606;28;20542;-65
2023/04/03 12:50:33;;;;;;;3.53;1.45;;;9.10;72.50;;;;;;5109074;28;20094;-66
2023/04/03 12:53:12;;;;;;;3.10;1.23;;;9.20;68.80;;;;;;5098569;28;20046;-66
2023/04/03 12:55:38;;;;;;;2.13;1.17;;;9.60;67.70;;;;;;5108357;28;20406;-66
2023/04/03 12:58:26;;;;;;;4.70;1.52;;;8.90;69.80;;;;;;5108502;28;20039;-66
2023/04/03 13:01:02;;;;;;;2.90;1.33;;;8.50;71.00;;;;;;5114143;28;20023;-66
2023/04/03 13:03:28;;;;;;;2.35;1.20;;;8.40;72.70;;;;;;5097210;28;20077;-67
2023/04/03 13:06:00;;;;;;;3.45;1.40;;;8.60;75.10;;;;;;5100864;28;20035;-67
2023/04/03 13:08:26;;;;;;;4.60;1.50;;;8.50;70.00;;;;;;5100521;28;20061;-67
2023/04/03 13:10:57;;;;;;;7.82;1.80;;;8.10;73.20;;;;;;5106055;28;20123;-68
2023/04/03 13:13:23;;;;;;;5.32;1.90;;;8.20;78.10;;;;;;5109143;28;20040;-69
2023/04/03 13:15:50;;;;;;;3.28;1.77;;;8.30;78.10;;;;;;5101980;28;20396;-68
2023/04/03 13:18:33;;;;;;;3.65;1.23;;;8.20;78.60;;;;;;5101797;28;20498;-67
2023/04/03 13:21:13;;;;;;;3.45;1.80;;;8.40;78.10;;;;;;5099036;28;20029;-66
2023/04/03 13:23:43;;;;;;;5.70;1.70;;;8.40;75.00;;;;;;5099645;28;20378;-66
2023/04/03 13:26:09;;;;;;;5.30;1.75;;;8.80;75.80;;;;;;5106078;28;20118;-66
2023/04/03 13:28:36;;;;;;;3.78;1.63;;;8.60;74.30;;;;;;5087690;28;20111;-67
2023/04/03 13:31:17;;;;;;;4.28;1.65;;;8.80;75.20;;;;;;5101174;28;20062;-66
2023/04/03 13:34:09;;;;;;;2.63;1.40;;;9.00;75.10;;;;;;5107236;28;20035;-68
2023/04/03 13:36:44;;;;;;;4.05;1.65;;;8.90;76.70;;;;;;5091221;28;20123;-69
2023/04/03 13:41:50;;;;;;;4.00;1.60;;;8.80;73.90;;;;;;5106880;27;20436;-69
2023/04/03 13:44:27;;;;;;;3.85;1.50;;;8.80;79.40;;;;;;5091642;28;20401;-68